Time;durP1;ratioP1;P1;durP2;ratioP2;P2;SDS_P1;SDS_P2;PMS_P1;PMS_P2;Temp;Humidity;BMP_temperature;BMP_pressure;BME280_temperature;BME280_humidity;BME280_pressure;Samples;Min_cycle;Max_cycle;Signal;HPM_P1;HPM_P2
2023/06/24 00:01:39;;;;;;;8.88;4.07;;;;;;;24.18;56.43;99738.06;4328531;33;33049;-58
2023/06/24 00:04:07;;;;;;;4.45;2.78;;;;;;;24.48;55.79;99730.44;4326539;33;33973;-58
2023/06/24 00:06:36;;;;;;;6.07;3.60;;;;;;;23.92;58.03;99728.69;4357148;32;35012;-58
2023/06/24 00:09:04;;;;;;;7.35;4.10;;;;;;;24.25;56.27;99732.63;4357646;32;33951;-58
2023/06/24 00:11:32;;;;;;;7.78;4.10;;;;;;;23.72;58.19;99735.91;4346373;32;33188;-57
2023/06/24 00:13:59;;;;;;;5.78;3.03;;;;;;;23.93;57.88;99727.63;4346750;32;33598;-57
2023/06/24 00:16:27;;;;;;;6.57;2.95;;;;;;;23.82;58.00;99730.94;4361696;32;35512;-58
2023/06/24 00:19:00;;;;;;;7.65;3.67;;;;;;;23.47;58.85;99722.69;4359036;32;35563;-58
2023/06/24 00:21:29;;;;;;;5.87;3.33;;;;;;;23.67;58.81;99711.87;4347344;32;34354;-58
2023/06/24 00:23:58;;;;;;;5.97;3.50;;;;;;;23.76;58.09;99709.88;4348481;32;33683;-57
2023/06/24 00:26:25;;;;;;;6.18;3.55;;;;;;;23.63;58.74;99704.31;4354907;32;33805;-57
2023/06/24 00:28:53;;;;;;;5.47;3.22;;;;;;;24.01;57.50;99717.56;4361006;32;33816;-58
2023/06/24 00:31:22;;;;;;;10.20;4.12;;;;;;;23.89;57.65;99711.84;4356073;32;33285;-58
2023/06/24 00:33:52;;;;;;;5.75;3.65;;;;;;;23.34;59.68;99714.41;4354408;32;33812;-57
2023/06/24 00:36:20;;;;;;;5.57;3.00;;;;;;;23.56;58.47;99715.16;4350306;32;34030;-58
2023/06/24 00:38:49;;;;;;;8.43;4.05;;;;;;;23.09;60.09;99713.13;4348815;32;35293;-58
2023/06/24 00:41:19;;;;;;;7.72;4.55;;;;;;;23.43;58.94;99704.97;4347541;33;33384;-57
2023/06/24 00:43:48;;;;;;;15.18;4.70;;;;;;;23.62;58.24;99706.16;4348882;32;33602;-57
2023/06/24 00:46:15;;;;;;;8.32;4.50;;;;;;;23.22;58.54;99688.66;4361233;32;33910;-57
2023/06/24 00:48:43;;;;;;;9.00;4.68;;;;;;;22.95;60.11;99688.44;4356762;32;34222;-57
2023/06/24 00:51:11;;;;;;;8.10;4.07;;;;;;;23.02;59.62;99691.25;4349728;32;33028;-59
2023/06/24 00:53:39;;;;;;;8.73;5.43;;;;;;;23.07;59.23;99682.44;4346207;32;33886;-59
2023/06/24 00:56:07;;;;;;;9.00;4.60;;;;;;;23.07;59.22;99696.94;4348758;32;33875;-58
2023/06/24 00:58:36;;;;;;;7.78;4.50;;;;;;;23.45;57.95;99691.16;4349810;32;33858;-57
2023/06/24 01:01:05;;;;;;;8.32;4.65;;;;;;;23.44;58.13;99695.75;4353290;32;33620;-58
2023/06/24 01:03:33;;;;;;;7.68;4.62;;;;;;;23.36;58.75;99687.72;4353336;32;33843;-58
2023/06/24 01:06:01;;;;;;;7.80;3.85;;;;;;;22.99;58.49;99676.09;4351242;32;33877;-58
2023/06/24 01:08:29;;;;;;;7.40;4.37;;;;;;;23.25;58.16;99677.34;4332962;32;34166;-57
2023/06/24 01:10:57;;;;;;;8.38;4.82;;;;;;;23.67;56.98;99670.06;4333574;33;34609;-58
2023/06/24 01:13:25;;;;;;;7.90;3.97;;;;;;;22.70;59.91;99668.88;4329522;33;33533;-57
2023/06/24 01:15:53;;;;;;;8.63;5.40;;;;;;;23.22;58.33;99675.00;4333436;33;33714;-57
2023/06/24 01:18:40;;;;;;;10.73;4.75;;;;;;;22.94;59.51;99677.72;4329619;33;34865;-57
2023/06/24 01:21:33;;;;;;;8.77;4.25;;;;;;;23.17;58.28;99666.56;4330287;33;33440;-58
2023/06/24 01:24:06;;;;;;;5.95;3.85;;;;;;;23.47;57.31;99668.06;4335552;33;33528;-58
2023/06/24 01:26:52;;;;;;;10.50;3.78;;;;;;;23.36;57.69;99665.87;4332346;33;34864;-57
2023/06/24 01:29:44;;;;;;;7.15;3.45;;;;;;;22.78;58.98;99674.19;4329103;33;34478;-58
2023/06/24 01:32:23;;;;;;;7.50;3.35;;;;;;;22.77;58.49;99668.94;4322947;33;33312;-58
2023/06/24 01:34:56;;;;;;;8.57;4.50;;;;;;;23.44;56.62;99663.00;4329177;33;33631;-58
2023/06/24 01:37:44;;;;;;;10.43;3.42;;;;;;;22.77;58.87;99663.47;4324905;33;33827;-58
2023/06/24 01:40:30;;;;;;;4.95;3.08;;;;;;;23.17;57.33;99648.28;4317544;33;33685;-59
2023/06/24 01:42:59;;;;;;;5.28;3.35;;;;;;;22.88;57.55;99651.19;4337275;32;32272;-58
2023/06/24 01:45:31;;;;;;;6.62;3.03;;;;;;;23.23;56.79;99647.50;4331471;32;34318;-58
2023/06/24 01:48:07;;;;;;;7.87;3.58;;;;;;;22.73;57.81;99654.84;4344853;32;33853;-58
2023/06/24 01:50:36;;;;;;;6.03;3.30;;;;;;;22.79;57.65;99647.72;4350780;32;34043;-58
2023/06/24 01:53:06;;;;;;;5.57;3.40;;;;;;;23.00;57.12;99638.72;4308677;33;34667;-57
2023/06/24 01:55:34;;;;;;;5.25;2.87;;;;;;;23.11;56.72;99635.44;4300136;33;33571;-57
2023/06/24 01:58:05;;;;;;;4.75;2.95;;;;;;;23.44;55.70;99638.41;4312335;33;33751;-57
2023/06/24 02:00:34;;;;;;;5.18;2.92;;;;;;;22.77;57.98;99628.84;4293993;33;34132;-58
2023/06/24 02:03:04;;;;;;;5.15;3.15;;;;;;;22.99;57.31;99624.25;4279640;33;33249;-58
2023/06/24 02:05:33;;;;;;;6.22;3.37;;;;;;;22.58;57.50;99621.31;4287068;33;35105;-58
2023/06/24 02:08:02;;;;;;;6.28;2.60;;;;;;;22.44;58.38;99616.75;4286127;33;33882;-58
2023/06/24 02:10:30;;;;;;;5.55;2.95;;;;;;;22.75;57.31;99625.47;4297567;33;33803;-58
2023/06/24 02:12:59;;;;;;;6.60;3.80;;;;;;;22.48;57.61;99621.66;4298855;33;33625;-58
2023/06/24 02:15:28;;;;;;;6.70;3.20;;;;;;;22.18;58.44;99629.06;4286687;33;34680;-57
2023/06/24 02:17:56;;;;;;;7.37;2.90;;;;;;;22.38;58.25;99640.22;4291458;33;34216;-58
2023/06/24 02:20:26;;;;;;;4.60;2.67;;;;;;;22.70;57.31;99635.28;4305904;33;34183;-58
2023/06/24 02:22:54;;;;;;;7.15;3.05;;;;;;;22.97;56.49;99637.22;4302828;33;34873;-58
2023/06/24 02:25:23;;;;;;;5.65;2.60;;;;;;;21.99;58.83;99630.53;4318682;33;33462;-58
2023/06/24 02:27:52;;;;;;;5.43;2.58;;;;;;;21.97;59.37;99627.16;4305045;33;34357;-58
2023/06/24 02:30:21;;;;;;;9.52;3.53;;;;;;;22.73;57.14;99626.72;4325770;33;35428;-58
2023/06/24 02:32:49;;;;;;;5.65;3.05;;;;;;;22.78;56.85;99635.16;4306667;33;34017;-58
2023/06/24 02:35:17;;;;;;;8.20;4.15;;;;;;;22.90;56.72;99640.91;4320524;33;33857;-58
2023/06/24 02:37:44;;;;;;;4.90;3.08;;;;;;;22.14;58.34;99644.09;4332530;33;34880;-58
2023/06/24 02:40:12;;;;;;;11.05;3.22;;;;;;;21.94;59.52;99638.44;4359405;32;32802;-58
2023/06/24 02:42:41;;;;;;;5.62;2.40;;;;;;;21.93;59.35;99639.47;4339329;33;34373;-58
2023/06/24 02:45:09;;;;;;;12.55;3.35;;;;;;;22.15;59.19;99634.91;4360918;32;32297;-57
2023/06/24 02:47:37;;;;;;;5.12;3.35;;;;;;;21.75;60.12;99639.03;4336991;33;34118;-58
2023/06/24 02:50:06;;;;;;;7.20;3.12;;;;;;;21.65;60.27;99643.91;4355459;32;33881;-58
2023/06/24 02:52:36;;;;;;;6.57;3.60;;;;;;;21.89;59.51;99643.59;4344540;32;33740;-58
2023/06/24 02:55:05;;;;;;;6.20;2.83;;;;;;;21.89;59.77;99646.31;4350250;32;33816;-58
2023/06/24 02:57:36;;;;;;;6.62;3.92;;;;;;;21.67;60.43;99647.28;4343996;32;35269;-58
2023/06/24 03:00:08;;;;;;;5.47;2.60;;;;;;;21.75;59.29;99648.03;4360006;32;34071;-58
2023/06/24 03:02:38;;;;;;;9.20;3.92;;;;;;;21.74;59.96;99656.41;4333270;32;32216;-58
2023/06/24 03:05:07;;;;;;;5.32;2.40;;;;;;;21.46;60.11;99662.50;4358787;32;32243;-58
2023/06/24 03:07:36;;;;;;;4.43;2.58;;;;;;;22.05;58.85;99672.50;4358226;32;34109;-58
2023/06/24 03:10:05;;;;;;;5.97;3.28;;;;;;;21.95;59.13;99677.41;4336771;33;34792;-57
2023/06/24 03:12:33;;;;;;;5.50;2.67;;;;;;;21.31;60.82;99669.78;4348636;32;33491;-57
2023/06/24 03:15:01;;;;;;;5.15;2.78;;;;;;;21.59;59.76;99673.59;4352738;32;33624;-57
2023/06/24 03:17:29;;;;;;;5.40;2.60;;;;;;;21.58;59.41;99669.19;4357096;32;33884;-57
2023/06/24 03:19:57;;;;;;;6.15;2.67;;;;;;;21.58;59.61;99660.16;4336443;32;33994;-57
2023/06/24 03:22:25;;;;;;;6.03;2.10;;;;;;;21.64;59.50;99659.41;4350161;32;33392;-57
2023/06/24 03:24:52;;;;;;;4.15;2.62;;;;;;;21.29;60.92;99660.97;4357709;32;34298;-58
2023/06/24 03:27:21;;;;;;;6.10;3.08;;;;;;;21.29;60.68;99666.41;4356695;32;33754;-57
2023/06/24 03:29:48;;;;;;;5.50;1.87;;;;;;;21.79;58.72;99670.28;4359899;32;34882;-58
2023/06/24 03:32:17;;;;;;;4.68;1.95;;;;;;;21.14;60.57;99671.81;4351976;32;33633;-57
2023/06/24 03:34:46;;;;;;;5.72;2.72;;;;;;;21.58;59.16;99668.34;4356632;32;33762;-58
2023/06/24 03:37:14;;;;;;;3.20;1.73;;;;;;;21.43;59.76;99668.31;4349861;32;33909;-57
2023/06/24 03:39:41;;;;;;;4.55;2.35;;;;;;;21.45;59.31;99674.44;4350227;32;34093;-58
2023/06/24 03:42:09;;;;;;;3.42;1.85;;;;;;;21.27;59.52;99679.34;4358006;32;33353;-58
2023/06/24 03:44:37;;;;;;;3.85;2.15;;;;;;;21.39;59.65;99681.47;4360048;32;34517;-57
2023/06/24 03:47:05;;;;;;;4.07;2.20;;;;;;;20.61;61.58;99692.62;4353227;32;34110;-58
2023/06/24 03:49:33;;;;;;;4.03;2.20;;;;;;;21.10;60.45;99690.38;4356095;32;35203;-57
2023/06/24 03:52:00;;;;;;;6.03;1.87;;;;;;;21.01;60.15;99702.38;4347938;32;33204;-57
2023/06/24 03:54:29;;;;;;;5.32;2.15;;;;;;;20.52;61.70;99693.75;4349361;32;34018;-58
2023/06/24 03:56:56;;;;;;;4.57;2.37;;;;;;;21.18;59.89;99709.34;4352522;32;33773;-57
2023/06/24 03:59:24;;;;;;;3.83;2.15;;;;;;;20.80;61.28;99721.25;4349279;32;34016;-57
2023/06/24 04:01:52;;;;;;;3.80;2.00;;;;;;;21.19;60.09;99715.66;4345756;32;35238;-57
2023/06/24 04:04:23;;;;;;;3.40;1.62;;;;;;;20.78;61.17;99728.75;4352656;32;35532;-57
2023/06/24 04:06:50;;;;;;;2.70;1.60;;;;;;;21.05;60.11;99736.34;4353097;32;34351;-57
2023/06/24 04:09:18;;;;;;;4.22;1.73;;;;;;;21.10;59.44;99733.94;4360062;32;34932;-57
2023/06/24 04:11:46;;;;;;;4.18;1.62;;;;;;;21.25;59.14;99724.94;4347143;32;33359;-57
2023/06/24 04:14:13;;;;;;;12.80;2.05;;;;;;;20.60;61.09;99738.03;4353431;32;33689;-57
2023/06/24 04:16:41;;;;;;;4.90;1.80;;;;;;;20.94;59.27;99734.91;4351782;32;34284;-57
2023/06/24 04:19:08;;;;;;;2.58;1.62;;;;;;;21.11;59.66;99737.50;4347382;32;33877;-57
2023/06/24 04:21:37;;;;;;;2.87;1.33;;;;;;;21.40;58.17;99725.88;4347543;32;33430;-57
2023/06/24 04:24:05;;;;;;;3.00;0.95;;;;;;;21.52;57.82;99731.72;4358693;32;34730;-57
2023/06/24 04:26:32;;;;;;;15.02;2.12;;;;;;;21.13;59.12;99740.88;4352449;32;33834;-57
2023/06/24 04:29:00;;;;;;;1.75;1.20;;;;;;;21.36;58.30;99730.84;4360569;32;34917;-57
2023/06/24 04:31:28;;;;;;;1.42;0.98;;;;;;;21.45;57.89;99733.50;4356753;32;34900;-57
2023/06/24 04:33:55;;;;;;;1.02;0.75;;;;;;;21.34;58.11;99732.00;4348412;32;34026;-57
2023/06/24 04:36:23;;;;;;;3.78;1.42;;;;;;;21.33;57.93;99735.78;4361781;32;35145;-57
2023/06/24 04:38:51;;;;;;;12.25;1.10;;;;;;;21.80;57.07;99751.84;4354173;32;35224;-58
2023/06/24 04:41:19;;;;;;;1.80;0.90;;;;;;;21.70;57.64;99743.09;4353993;32;33417;-57
2023/06/24 04:43:46;;;;;;;1.85;1.02;;;;;;;21.32;57.23;99734.94;4354141;32;35003;-57
2023/06/24 04:46:14;;;;;;;1.98;1.15;;;;;;;21.69;57.32;99738.66;4352336;32;35410;-57
2023/06/24 04:48:42;;;;;;;2.45;1.10;;;;;;;21.20;59.28;99736.41;4348074;32;33720;-57
2023/06/24 04:51:09;;;;;;;1.52;0.60;;;;;;;21.06;59.20;99723.56;4360283;32;33498;-57
2023/06/24 04:53:37;;;;;;;3.83;1.17;;;;;;;21.62;57.89;99729.56;4355791;32;33639;-57
2023/06/24 04:56:04;;;;;;;1.15;0.60;;;;;;;21.15;59.52;99734.25;4350669;32;33796;-57
2023/06/24 04:58:32;;;;;;;1.12;0.55;;;;;;;21.23;58.58;99733.31;4348120;32;34115;-58
2023/06/24 05:00:59;;;;;;;2.05;0.62;;;;;;;21.37;57.96;99729.78;4343986;32;33485;-57
2023/06/24 05:03:27;;;;;;;1.27;0.70;;;;;;;20.88;59.51;99729.34;4355318;32;35019;-57
2023/06/24 05:05:55;;;;;;;2.53;0.60;;;;;;;21.41;58.01;99741.16;4360759;32;33951;-57
2023/06/24 05:08:22;;;;;;;1.20;0.60;;;;;;;21.39;57.75;99727.75;4331021;33;33762;-58
2023/06/24 05:10:50;;;;;;;1.48;0.68;;;;;;;21.54;58.72;99726.91;4337569;33;34286;-58
2023/06/24 05:13:18;;;;;;;0.80;0.50;;;;;;;21.54;57.75;99727.78;4353600;32;34567;-58
2023/06/24 05:15:45;;;;;;;0.90;0.50;;;;;;;21.29;57.78;99729.84;4349205;32;33586;-58
2023/06/24 05:18:13;;;;;;;0.30;0.30;;;;;;;21.78;57.76;99736.72;4341605;33;35199;-58
2023/06/24 05:20:40;;;;;;;0.50;0.45;;;;;;;21.27;57.80;99731.91;4335095;33;34388;-58
2023/06/24 05:23:08;;;;;;;2.37;1.10;;;;;;;21.66;57.22;99743.66;4336221;33;35412;-57
2023/06/24 05:25:36;;;;;;;1.10;0.62;;;;;;;21.40;58.09;99739.47;4341756;32;34123;-58
2023/06/24 05:28:03;;;;;;;4.28;0.50;;;;;;;21.45;57.86;99733.50;4338832;33;34149;-57
2023/06/24 05:30:31;;;;;;;0.65;0.43;;;;;;;21.50;57.59;99740.06;4331754;33;33556;-58
2023/06/24 05:32:59;;;;;;;1.05;0.73;;;;;;;21.11;58.60;99741.06;4330204;33;33837;-57
2023/06/24 05:35:26;;;;;;;6.25;0.60;;;;;;;21.39;58.08;99743.25;4343878;33;33606;-57
2023/06/24 05:37:54;;;;;;;0.85;0.50;;;;;;;21.47;57.13;99740.41;4334538;32;33884;-57
2023/06/24 05:40:21;;;;;;;2.37;0.52;;;;;;;21.23;57.29;99751.53;4342856;32;34889;-58
2023/06/24 05:42:49;;;;;;;1.23;0.85;;;;;;;21.51;57.69;99749.94;4359943;32;33430;-58
2023/06/24 05:45:16;;;;;;;1.52;0.70;;;;;;;21.82;56.69;99749.75;4360023;32;34488;-58
2023/06/24 05:47:46;;;;;;;0.65;0.52;;;;;;;21.56;57.19;99761.09;4354207;32;33850;-57
2023/06/24 05:50:14;;;;;;;0.95;0.60;;;;;;;22.22;55.50;99761.25;4355015;32;33499;-58
2023/06/24 05:52:41;;;;;;;0.60;0.40;;;;;;;22.37;55.03;99760.38;4350290;32;226997;-57
2023/06/24 05:55:09;;;;;;;4.78;0.52;;;;;;;22.07;56.32;99763.94;4361841;32;33824;-57
2023/06/24 05:57:36;;;;;;;0.40;0.30;;;;;;;21.97;55.69;99768.00;4357499;32;34099;-57
2023/06/24 06:00:05;;;;;;;2.80;0.93;;;;;;;21.99;56.66;99766.78;4347104;32;34796;-59
2023/06/24 06:02:38;;;;;;;2.03;0.53;;;;;;;22.52;54.98;99772.09;4346622;32;33750;-59
2023/06/24 06:05:06;;;;;;;1.45;0.80;;;;;;;22.51;55.18;99781.34;4354686;32;33760;-57
2023/06/24 06:07:34;;;;;;;1.08;0.57;;;;;;;22.13;56.35;99783.31;4352035;32;34790;-58
2023/06/24 06:10:02;;;;;;;0.65;0.40;;;;;;;22.00;56.72;99783.97;4350868;32;33675;-58
2023/06/24 06:12:30;;;;;;;2.28;0.75;;;;;;;22.56;54.93;99787.03;4351634;32;32478;-57
2023/06/24 06:14:57;;;;;;;0.80;0.45;;;;;;;22.00;56.35;99793.00;4362969;32;33800;-58
2023/06/24 06:17:25;;;;;;;2.90;0.60;;;;;;;22.37;55.92;99788.47;4344676;32;34844;-57
2023/06/24 06:19:53;;;;;;;0.95;0.50;;;;;;;22.34;56.60;99797.03;4351696;32;33523;-59
2023/06/24 06:22:20;;;;;;;2.12;0.85;;;;;;;22.22;57.32;99801.31;4351772;32;33551;-62
2023/06/24 06:24:47;;;;;;;0.40;0.40;;;;;;;22.38;56.16;99795.66;4347326;32;33851;-57
2023/06/24 06:27:15;;;;;;;1.08;0.73;;;;;;;22.52;56.09;99799.38;4348645;32;33918;-57
2023/06/24 06:29:43;;;;;;;2.30;0.50;;;;;;;22.84;55.41;99795.34;4359483;32;33558;-58
2023/06/24 06:32:10;;;;;;;1.48;0.62;;;;;;;22.39;56.15;99805.50;4348895;32;34347;-57
2023/06/24 06:34:38;;;;;;;1.25;0.62;;;;;;;22.85;54.57;99804.38;4354656;32;33877;-57
2023/06/24 06:37:06;;;;;;;0.98;0.65;;;;;;;23.08;55.39;99805.09;4351413;32;33889;-57
2023/06/24 06:39:33;;;;;;;1.55;0.88;;;;;;;23.04;55.15;99802.94;4358240;32;33188;-57
2023/06/24 06:42:01;;;;;;;0.90;0.60;;;;;;;23.10;54.28;99808.47;4353292;32;33619;-57
2023/06/24 06:44:28;;;;;;;1.40;0.68;;;;;;;23.23;54.43;99799.56;4346824;32;35167;-57
2023/06/24 06:46:56;;;;;;;0.60;0.55;;;;;;;22.93;55.11;99805.16;4359287;32;33686;-58
2023/06/24 06:49:23;;;;;;;4.47;1.62;;;;;;;22.98;55.44;99805.38;4349656;32;33576;-57
2023/06/24 06:51:55;;;;;;;1.73;0.98;;;;;;;22.96;55.01;99806.66;4350123;32;34463;-57
2023/06/24 06:54:22;;;;;;;0.98;0.57;;;;;;;23.70;53.41;99803.59;4347555;32;33941;-57
2023/06/24 06:56:50;;;;;;;2.10;0.75;;;;;;;23.90;52.93;99803.72;4354644;32;34783;-57
2023/06/24 06:59:17;;;;;;;2.17;0.90;;;;;;;23.05;54.71;99807.34;4346788;32;33439;-57
2023/06/24 07:01:45;;;;;;;3.53;1.20;;;;;;;23.24;54.41;99810.31;4348925;32;33569;-59
2023/06/24 07:04:13;;;;;;;1.17;0.52;;;;;;;23.52;53.48;99797.72;4349509;32;33737;-59
2023/06/24 07:06:40;;;;;;;2.67;0.93;;;;;;;23.88;53.75;99801.19;4346569;32;34009;-59
2023/06/24 07:09:08;;;;;;;1.98;0.80;;;;;;;24.09;53.68;99799.44;4353804;32;33382;-58
2023/06/24 07:11:36;;;;;;;2.37;1.10;;;;;;;24.07;52.86;99780.47;4352135;32;33625;-58
2023/06/24 07:14:03;;;;;;;1.17;0.70;;;;;;;24.09;52.47;99791.22;4352028;32;34417;-58
2023/06/24 07:16:31;;;;;;;2.28;0.95;;;;;;;24.06;52.95;99786.16;4344995;32;34242;-58
2023/06/24 07:18:58;;;;;;;1.55;0.70;;;;;;;24.62;51.36;99781.44;4350533;32;33547;-60
2023/06/24 07:21:26;;;;;;;1.33;0.88;;;;;;;24.58;52.06;99790.22;4346623;32;33641;-58
2023/06/24 07:23:53;;;;;;;1.55;0.82;;;;;;;24.38;51.44;99785.47;4355246;32;32605;-59
2023/06/24 07:26:22;;;;;;;1.58;0.80;;;;;;;24.17;53.35;99797.38;4346643;32;34110;-58
2023/06/24 07:28:49;;;;;;;1.85;0.75;;;;;;;24.73;51.79;99799.12;4356797;32;34089;-58
2023/06/24 07:31:30;;;;;;;4.62;1.33;;;;;;;24.41;52.71;99797.94;4349154;32;33810;-58
2023/06/24 07:33:58;;;;;;;2.75;1.12;;;;;;;24.44;52.35;99813.97;4349786;32;34072;-58
2023/06/24 07:36:25;;;;;;;3.08;1.42;;;;;;;24.20;52.45;99815.25;4350653;32;34125;-59
2023/06/24 07:38:53;;;;;;;1.08;0.60;;;;;;;23.81;53.99;99815.84;4352318;32;33366;-58
2023/06/24 07:41:20;;;;;;;2.00;0.98;;;;;;;23.60;54.47;99830.38;4357575;32;33422;-58
2023/06/24 07:43:48;;;;;;;3.35;1.20;;;;;;;23.97;53.76;99833.84;4353472;32;35303;-58
2023/06/24 07:46:16;;;;;;;2.05;0.82;;;;;;;24.15;53.08;99845.12;4346269;32;35415;-58
2023/06/24 07:48:44;;;;;;;2.35;0.93;;;;;;;24.17;53.24;99834.78;4353066;32;34436;-59
2023/06/24 07:51:11;;;;;;;4.85;0.90;;;;;;;23.99;53.13;99831.75;4350026;32;34406;-59
2023/06/24 07:53:39;;;;;;;1.60;0.85;;;;;;;24.31;52.68;99828.38;4353857;32;34593;-58
2023/06/24 07:56:06;;;;;;;2.80;0.98;;;;;;;24.14;53.03;99825.13;4347378;32;34466;-58
2023/06/24 07:58:34;;;;;;;2.20;1.02;;;;;;;24.52;51.95;99823.88;4352095;32;33178;-59
2023/06/24 08:01:02;;;;;;;3.42;1.17;;;;;;;24.45;52.57;99825.75;4344614;32;34252;-58
2023/06/24 08:03:30;;;;;;;2.15;0.90;;;;;;;24.46;52.92;99825.53;4356053;32;34274;-59
2023/06/24 08:05:58;;;;;;;2.42;1.20;;;;;;;25.18;51.82;99829.62;4347833;32;33908;-59
2023/06/24 08:08:25;;;;;;;2.08;1.02;;;;;;;24.96;51.84;99833.53;4355743;32;33528;-58
2023/06/24 08:10:53;;;;;;;2.50;1.12;;;;;;;25.20;51.48;99835.75;4349659;32;35206;-58
2023/06/24 08:13:21;;;;;;;2.00;1.10;;;;;;;24.65;52.43;99840.34;4350355;32;33827;-58
2023/06/24 08:15:48;;;;;;;6.93;1.05;;;;;;;25.28;49.73;99829.22;4344131;32;34101;-58
2023/06/24 08:18:16;;;;;;;1.75;0.98;;;;;;;25.72;49.75;99834.09;4352119;32;34938;-58
2023/06/24 08:20:43;;;;;;;1.33;0.82;;;;;;;25.85;49.03;99840.66;4349506;32;34127;-59
2023/06/24 08:23:11;;;;;;;1.73;0.88;;;;;;;25.62;49.41;99844.62;4358304;32;35201;-58
2023/06/24 08:25:39;;;;;;;1.75;1.10;;;;;;;25.55;49.52;99852.00;4353894;32;35181;-58
2023/06/24 08:28:06;;;;;;;3.30;1.10;;;;;;;25.07;50.29;99846.59;4348772;32;34226;-59
2023/06/24 08:30:34;;;;;;;2.15;1.08;;;;;;;24.94;50.92;99836.44;4366281;32;35176;-58
2023/06/24 08:33:02;;;;;;;1.48;1.00;;;;;;;24.63;51.58;99829.62;4357208;32;33948;-58
2023/06/24 08:35:30;;;;;;;2.20;1.20;;;;;;;25.01;50.06;99833.75;4355563;32;33973;-59
2023/06/24 08:37:57;;;;;;;2.83;0.90;;;;;;;24.61;52.47;99850.03;4338068;32;34456;-58
2023/06/24 08:40:27;;;;;;;2.47;0.75;;;;;;;24.91;52.06;99842.38;4361965;32;34687;-58
2023/06/24 08:42:54;;;;;;;1.50;0.82;;;;;;;25.48;51.94;99857.47;4362798;32;33800;-59
2023/06/24 08:45:22;;;;;;;3.03;0.95;;;;;;;25.50;49.86;99851.78;4363650;32;33766;-59
2023/06/24 08:47:50;;;;;;;1.42;0.60;;;;;;;25.57;50.07;99844.41;4352804;32;33744;-59
2023/06/24 08:50:18;;;;;;;1.05;0.68;;;;;;;25.85;49.53;99843.41;4347359;32;33475;-59
2023/06/24 08:52:51;;;;;;;2.17;1.05;;;;;;;26.17;48.80;99845.25;4349695;32;34350;-59
2023/06/24 08:55:22;;;;;;;2.83;1.73;;;;;;;24.92;50.28;99841.31;4332273;32;33894;-59
2023/06/24 08:57:51;;;;;;;1.27;0.82;;;;;;;24.92;49.99;99846.78;4354872;32;33328;-59
2023/06/24 09:00:19;;;;;;;1.83;1.00;;;;;;;25.03;50.42;99848.91;4356817;32;34876;-59
2023/06/24 09:02:46;;;;;;;1.50;1.00;;;;;;;25.30;49.20;99849.88;4350339;32;35081;-59
2023/06/24 09:05:14;;;;;;;5.87;1.25;;;;;;;25.82;48.66;99841.09;4350495;32;34513;-59
2023/06/24 09:07:41;;;;;;;1.95;0.95;;;;;;;25.17;50.37;99838.03;4356848;32;34469;-59
2023/06/24 09:10:09;;;;;;;1.25;0.95;;;;;;;25.10;50.68;99829.75;4347076;32;33630;-59
2023/06/24 09:12:37;;;;;;;1.02;0.70;;;;;;;25.29;50.69;99837.19;4347992;32;34883;-60
2023/06/24 09:15:05;;;;;;;1.30;0.70;;;;;;;25.20;50.43;99838.47;4351652;32;35092;-59
2023/06/24 09:17:32;;;;;;;2.12;0.93;;;;;;;25.65;50.13;99840.59;4349825;32;33674;-60
2023/06/24 09:20:04;;;;;;;1.65;0.80;;;;;;;25.17;50.49;99843.50;4356818;32;33591;-60
2023/06/24 09:22:32;;;;;;;1.92;1.00;;;;;;;26.02;48.81;99847.38;4350286;32;33932;-60
2023/06/24 09:25:01;;;;;;;2.47;1.12;;;;;;;25.50;50.48;99855.38;4353401;32;34946;-62
2023/06/24 09:27:31;;;;;;;1.98;1.02;;;;;;;25.57;50.22;99858.13;4361189;32;33426;-59
2023/06/24 09:30:20;;;;;;;2.12;0.98;;;;;;;25.41;50.41;99850.31;4357501;32;34283;-59
2023/06/24 09:32:48;;;;;;;1.42;0.90;;;;;;;25.52;50.59;99846.94;4350948;32;33672;-59
2023/06/24 09:35:18;;;;;;;2.47;0.88;;;;;;;25.86;49.95;99840.44;4354246;32;33862;-58
2023/06/24 09:37:52;;;;;;;1.55;0.95;;;;;;;25.70;48.83;99836.19;4343853;32;34393;-58
2023/06/24 09:40:21;;;;;;;1.48;0.75;;;;;;;26.19;47.47;99839.53;4355243;32;33829;-58
2023/06/24 09:43:00;;;;;;;1.37;0.85;;;;;;;26.28;47.65;99840.16;4363908;32;33668;-59
2023/06/24 09:45:28;;;;;;;0.70;0.70;;;;;;;25.94;48.98;99834.75;4352385;32;34518;-59
2023/06/24 09:48:00;;;;;;;3.58;1.05;;;;;;;26.27;48.15;99835.75;4354417;32;33323;-58
2023/06/24 09:50:28;;;;;;;1.65;0.90;;;;;;;26.49;47.65;99837.19;4361018;32;33860;-63
2023/06/24 09:52:57;;;;;;;1.92;1.05;;;;;;;26.59;47.49;99836.72;4358625;32;35288;-59
2023/06/24 09:55:25;;;;;;;2.33;1.00;;;;;;;25.95;48.98;99841.91;4355643;32;33762;-59
2023/06/24 09:57:53;;;;;;;3.78;0.80;;;;;;;26.43;47.44;99840.75;4362129;32;33519;-59
2023/06/24 10:00:22;;;;;;;1.33;1.05;;;;;;;26.50;47.07;99838.03;4360931;32;33611;-59
2023/06/24 10:02:53;;;;;;;2.53;1.02;;;;;;;26.43;47.27;99827.03;4356892;32;34961;-58
2023/06/24 10:05:22;;;;;;;2.97;1.60;;;;;;;26.19;48.60;99825.81;4349955;32;33913;-59
2023/06/24 10:07:50;;;;;;;2.22;0.98;;;;;;;26.30;47.30;99819.69;4362460;32;33129;-59
2023/06/24 10:10:18;;;;;;;1.40;0.82;;;;;;;26.10;48.96;99825.22;4356646;32;35100;-59
2023/06/24 10:12:45;;;;;;;1.67;1.00;;;;;;;26.67;47.34;99820.00;4349751;32;34966;-59
2023/06/24 10:15:14;;;;;;;1.67;0.90;;;;;;;27.00;46.99;99821.72;4359839;32;33940;-59
2023/06/24 10:17:41;;;;;;;3.00;1.17;;;;;;;26.70;47.22;99816.81;4347916;32;34475;-59
2023/06/24 10:20:10;;;;;;;1.55;1.10;;;;;;;26.57;46.64;99803.16;4355009;32;33417;-59
2023/06/24 10:22:37;;;;;;;2.08;1.10;;;;;;;26.68;47.20;99814.31;4348143;32;34188;-59
2023/06/24 10:25:07;;;;;;;3.67;1.15;;;;;;;26.38;47.79;99815.84;4343215;32;33484;-59
2023/06/24 10:27:42;;;;;;;2.75;0.98;;;;;;;26.40;47.00;99808.25;4355113;32;34211;-60
2023/06/24 10:30:19;;;;;;;1.75;1.08;;;;;;;26.97;46.45;99808.44;4344544;32;34411;-60
2023/06/24 10:32:51;;;;;;;1.95;1.00;;;;;;;27.15;46.68;99798.44;4349441;32;33635;-59
2023/06/24 10:35:24;;;;;;;2.47;0.82;;;;;;;26.56;46.79;99810.56;4353834;32;34263;-60
2023/06/24 10:37:59;;;;;;;1.90;1.20;;;;;;;27.33;45.80;99800.44;4344862;32;34681;-59
2023/06/24 10:40:38;;;;;;;1.98;1.25;;;;;;;27.59;45.73;99793.03;4350932;32;33369;-59
2023/06/24 10:43:38;;;;;;;1.55;0.85;;;;;;;26.85;46.43;99797.34;4348104;32;35442;-59
2023/06/24 10:46:14;;;;;;;0.75;0.68;;;;;;;27.34;46.24;99804.84;4268513;33;34200;-59
2023/06/24 10:48:42;;;;;;;11.82;1.27;;;;;;;27.35;45.42;99801.06;4268261;33;33313;-59
2023/06/24 10:51:09;;;;;;;5.80;1.20;;;;;;;28.06;43.75;99791.56;4266747;33;34125;-59
2023/06/24 10:53:37;;;;;;;1.85;1.05;;;;;;;27.87;44.86;99806.38;4255959;33;33901;-60
2023/06/24 10:56:04;;;;;;;1.85;0.95;;;;;;;28.08;44.16;99800.41;4264465;33;33588;-59
2023/06/24 10:58:32;;;;;;;1.87;1.02;;;;;;;27.74;45.63;99810.03;4267125;33;34207;-59
2023/06/24 11:01:07;;;;;;;4.95;1.35;;;;;;;27.35;45.65;99819.44;4267967;33;33418;-59
2023/06/24 11:03:35;;;;;;;4.18;1.50;;;;;;;27.33;44.80;99818.81;4267539;33;35548;-59
2023/06/24 11:06:04;;;;;;;3.40;1.48;;;;;;;28.21;43.21;99817.84;4265504;33;36543;-59
2023/06/24 11:08:32;;;;;;;1.85;0.80;;;;;;;27.91;44.46;99810.34;4265600;33;33305;-58
2023/06/24 11:11:02;;;;;;;1.45;0.95;;;;;;;28.41;45.00;99812.16;4265123;33;33699;-59
2023/06/24 11:13:33;;;;;;;3.60;1.05;;;;;;;27.99;45.40;99815.53;4269343;33;32573;-59
2023/06/24 11:16:01;;;;;;;3.40;0.90;;;;;;;28.04;44.88;99814.88;4266590;33;33728;-59
2023/06/24 11:18:37;;;;;;;1.35;0.77;;;;;;;28.04;45.65;99818.44;4259367;33;34138;-60
2023/06/24 11:21:09;;;;;;;1.12;0.73;;;;;;;28.67;44.52;99805.47;4256304;33;33451;-60
2023/06/24 11:23:36;;;;;;;1.70;1.00;;;;;;;28.89;43.09;99806.69;4348582;32;34820;-59
2023/06/24 11:26:03;;;;;;;1.50;0.98;;;;;;;28.57;44.84;99811.53;4348441;32;33778;-61
2023/06/24 11:28:32;;;;;;;1.42;0.88;;;;;;;27.85;45.89;99808.50;4336631;33;32638;-62
2023/06/24 11:31:07;;;;;;;1.98;1.00;;;;;;;28.10;45.45;99812.03;4345776;32;33748;-59
2023/06/24 11:33:35;;;;;;;4.65;0.80;;;;;;;28.45;45.05;99803.22;4350055;32;33851;-59
2023/06/24 11:36:09;;;;;;;1.27;0.80;;;;;;;28.59;44.77;99792.03;4359131;32;33954;-60
2023/06/24 11:38:38;;;;;;;2.10;0.90;;;;;;;28.69;44.59;99784.06;4345505;33;34360;-59
2023/06/24 11:41:07;;;;;;;1.90;1.05;;;;;;;28.52;43.86;99784.72;4346110;32;34798;-59
2023/06/24 11:43:34;;;;;;;3.00;1.67;;;;;;;28.44;44.58;99787.75;4334644;32;33652;-59